Time;durP1;ratioP1;P1;durP2;ratioP2;P2;SDS_P1;SDS_P2;PMS_P1;PMS_P2;Temp;Humidity;BMP_temperature;BMP_pressure;BME280_temperature;BME280_humidity;BME280_pressure;Samples;Min_cycle;Max_cycle;Signal;HPM_P1;HPM_P2
2023/10/18 00:01:29;;;;;;;9.73;6.72;;;;;;;15.00;65.41;99985.47;5051017;28;20489;-38
2023/10/18 00:03:56;;;;;;;9.95;6.55;;;;;;;14.89;65.76;99982.72;5050791;28;20029;-38
2023/10/18 00:06:23;;;;;;;10.82;6.75;;;;;;;14.91;65.78;99981.47;5051096;28;20017;-39
2023/10/18 00:08:49;;;;;;;10.40;7.07;;;;;;;14.77;66.32;99974.63;5051006;28;20116;-38
2023/10/18 00:11:16;;;;;;;9.07;6.43;;;;;;;14.80;66.06;99975.00;5050687;28;20029;-39
2023/10/18 00:13:42;;;;;;;8.35;5.95;;;;;;;14.71;66.04;99984.38;5051229;28;20031;-41
2023/10/18 00:16:08;;;;;;;8.30;6.15;;;;;;;14.67;66.17;99983.19;5050976;28;20032;-39
2023/10/18 00:18:36;;;;;;;9.85;6.75;;;;;;;14.80;65.52;99975.00;5050782;28;20033;-39
2023/10/18 00:21:04;;;;;;;7.97;6.47;;;;;;;14.80;65.80;99984.91;5050963;28;20040;-39
2023/10/18 00:23:31;;;;;;;10.63;6.88;;;;;;;14.85;65.34;99967.13;5050793;28;20035;-40
2023/10/18 00:26:00;;;;;;;10.45;6.88;;;;;;;14.86;66.11;99966.06;5050647;28;20461;-39
2023/10/18 00:28:27;;;;;;;9.53;6.87;;;;;;;14.79;65.89;99961.81;5050830;28;20071;-39
2023/10/18 00:30:53;;;;;;;11.38;6.78;;;;;;;14.92;66.24;99961.66;5050661;28;20267;-39
2023/10/18 00:33:19;;;;;;;9.07;6.47;;;;;;;14.82;66.03;99956.84;5050395;28;20081;-40
2023/10/18 00:35:47;;;;;;;10.00;6.57;;;;;;;14.80;66.17;99953.56;5050714;28;20456;-40
2023/10/18 00:38:16;;;;;;;8.77;6.40;;;;;;;14.80;66.68;99955.44;5050707;28;20057;-40
2023/10/18 00:40:45;;;;;;;;;;;;;;;15.03;66.07;99946.69;5051154;28;20037;-40
2023/10/18 00:43:26;;;;;;;8.93;6.68;;;;;;;14.86;66.18;99951.84;5050712;28;19951;-39
2023/10/18 00:45:53;;;;;;;11.13;6.43;;;;;;;14.76;65.67;99947.03;5050785;28;20046;-40
2023/10/18 00:48:26;;;;;;;9.65;6.72;;;;;;;14.92;65.72;99945.56;5050386;28;20144;-39
2023/10/18 00:50:52;;;;;;;9.18;6.30;;;;;;;14.88;65.42;99944.41;5050416;28;20365;-39
2023/10/18 00:53:23;;;;;;;10.20;6.93;;;;;;;14.95;65.25;99945.13;5050521;28;20056;-39
2023/10/18 00:55:57;;;;;;;11.00;6.63;;;;;;;14.76;65.95;99920.25;5053540;28;20025;-39
2023/10/18 00:58:33;;;;;;;10.75;6.72;;;;;;;14.87;66.11;99937.41;5056101;28;20043;-40
2023/10/18 01:01:13;;;;;;;9.00;6.70;;;;;;;14.88;66.56;99943.59;5064896;28;20048;-39
2023/10/18 01:03:47;;;;;;;10.27;6.82;;;;;;;14.97;65.63;99945.72;5059350;28;20033;-40
2023/10/18 01:06:17;;;;;;;9.07;6.72;;;;;;;15.00;66.13;99941.75;5052031;28;20079;-40
2023/10/18 01:08:46;;;;;;;11.45;6.75;;;;;;;15.00;65.35;99944.44;5053341;28;20028;-39
2023/10/18 01:11:11;;;;;;;11.00;7.85;;;;;;;14.96;65.55;99941.38;5053638;28;20029;-39
2023/10/18 01:13:42;;;;;;;8.32;6.38;;;;;;;14.93;66.16;99936.50;5053618;28;20054;-39
2023/10/18 01:16:14;;;;;;;8.85;6.85;;;;;;;14.67;67.07;99943.03;5051088;28;20082;-40
2023/10/18 01:18:44;;;;;;;11.38;7.07;;;;;;;14.55;67.48;99931.41;5053584;28;20021;-40
2023/10/18 01:21:15;;;;;;;10.43;7.22;;;;;;;14.71;66.78;99933.50;5053737;28;20021;-39
2023/10/18 01:23:53;;;;;;;8.98;7.05;;;;;;;14.73;66.76;99935.94;5053275;28;20103;-40
2023/10/18 01:26:29;;;;;;;10.00;7.18;;;;;;;14.65;68.05;99937.88;5053574;28;20021;-39
2023/10/18 01:28:56;;;;;;;10.23;6.80;;;;;;;14.56;68.02;99938.38;5053163;28;20017;-39
2023/10/18 01:31:23;;;;;;;10.00;7.03;;;;;;;14.61;67.53;99938.56;5052455;28;20021;-39
2023/10/18 01:33:50;;;;;;;10.23;7.10;;;;;;;14.59;67.72;99929.94;5053169;28;20052;-38
2023/10/18 01:36:18;;;;;;;10.07;7.28;;;;;;;14.61;67.31;99935.91;5053587;28;20055;-39
2023/10/18 01:38:52;;;;;;;12.18;7.28;;;;;;;14.76;67.27;99932.81;5052998;28;20148;-39
2023/10/18 01:41:34;;;;;;;12.52;7.40;;;;;;;14.82;67.32;99938.09;5053316;28;20016;-39
2023/10/18 01:44:07;;;;;;;10.48;7.35;;;;;;;14.73;67.35;99936.75;5053598;28;20033;-39
2023/10/18 01:46:37;;;;;;;12.35;7.13;;;;;;;14.66;67.82;99941.41;5053461;28;20017;-39
2023/10/18 01:49:06;;;;;;;8.82;7.00;;;;;;;14.60;67.10;99936.91;5053404;28;20071;-39
2023/10/18 01:51:32;;;;;;;;;;;;;;;14.88;67.14;99943.59;5053559;28;20520;-39
2023/10/18 01:54:12;;;;;;;10.27;7.28;;;;;;;14.62;67.19;99946.38;5053229;28;20000;-40
2023/10/18 01:56:38;;;;;;;10.25;7.80;;;;;;;14.56;67.60;99941.88;5053150;28;20485;-40
2023/10/18 01:59:08;;;;;;;10.52;7.15;;;;;;;14.51;67.98;99939.06;5053163;28;20087;-40
2023/10/18 02:01:34;;;;;;;9.05;7.20;;;;;;;14.50;68.45;99928.59;5051516;28;20143;-40
2023/10/18 02:04:00;;;;;;;8.88;7.05;;;;;;;14.56;68.36;99938.38;5052828;28;20025;-39
2023/10/18 02:06:27;;;;;;;11.65;7.20;;;;;;;14.64;67.79;99943.47;5051949;28;20397;-40
2023/10/18 02:08:52;;;;;;;10.60;6.78;;;;;;;14.78;67.33;99936.09;5052828;28;20025;-40
2023/10/18 02:11:18;;;;;;;11.90;7.05;;;;;;;14.82;66.62;99935.41;5052599;28;20024;-40
2023/10/18 02:13:44;;;;;;;9.75;6.93;;;;;;;14.75;66.92;99936.53;5052746;28;20035;-39
2023/10/18 02:16:14;;;;;;;11.25;7.18;;;;;;;14.64;67.47;99938.09;5052624;28;20017;-39
2023/10/18 02:18:39;;;;;;;9.13;6.68;;;;;;;14.65;66.89;99935.22;5053008;28;20413;-40
2023/10/18 02:21:05;;;;;;;9.05;6.40;;;;;;;14.60;66.83;99939.59;5052595;28;20496;-39
2023/10/18 02:23:37;;;;;;;9.85;6.38;;;;;;;14.47;67.35;99938.69;5052685;28;20044;-39
2023/10/18 02:26:30;;;;;;;10.23;7.05;;;;;;;14.53;67.09;99939.66;5052753;28;20103;-39
2023/10/18 02:28:51;;;;;;;10.45;7.03;;;;;;;14.46;67.51;99942.41;5052504;28;20033;-39
2023/10/18 02:31:21;;;;;;;11.43;7.88;;;;;;;14.34;69.01;99946.88;5052494;28;20063;-39
2023/10/18 02:33:48;;;;;;;9.48;6.75;;;;;;;14.44;68.27;99936.47;5052365;28;20044;-40
2023/10/18 02:36:20;;;;;;;11.73;6.72;;;;;;;14.52;68.61;99948.72;5052397;28;20029;-40
2023/10/18 02:38:46;;;;;;;9.02;6.82;;;;;;;14.45;67.97;99945.34;5052075;28;20172;-40
2023/10/18 02:41:21;;;;;;;11.43;7.43;;;;;;;14.41;68.23;99947.63;5051988;28;20032;-40
2023/10/18 02:43:50;;;;;;;10.90;7.70;;;;;;;14.40;68.86;99953.22;5052107;28;20040;-40
2023/10/18 02:46:20;;;;;;;10.05;7.70;;;;;;;14.42;68.79;99949.25;5052438;28;20029;-40
2023/10/18 02:48:47;;;;;;;11.52;8.13;;;;;;;14.36;68.47;99949.34;5052106;28;20492;-40
2023/10/18 02:51:13;;;;;;;13.20;8.63;;;;;;;14.19;69.63;99936.53;5052138;28;20032;-38
2023/10/18 02:53:42;;;;;;;11.68;8.77;;;;;;;14.14;69.45;99948.94;5051859;28;20039;-39
2023/10/18 02:56:17;;;;;;;11.40;8.57;;;;;;;14.11;69.64;99944.88;5051685;28;20386;-40
2023/10/18 02:58:49;;;;;;;13.38;9.50;;;;;;;14.16;69.61;99936.97;5051465;28;20056;-39
2023/10/18 03:01:18;;;;;;;16.05;9.43;;;;;;;14.08;70.13;99946.13;5051522;28;20068;-40
2023/10/18 03:03:46;;;;;;;13.48;10.35;;;;;;;14.23;69.88;99935.06;5051911;28;20021;-38
2023/10/18 03:06:16;;;;;;;14.52;9.48;;;;;;;14.25;69.67;99932.16;5052171;28;20108;-39
2023/10/18 03:08:42;;;;;;;14.18;9.77;;;;;;;14.44;68.80;99941.00;5051749;28;20090;-38
2023/10/18 03:11:11;;;;;;;14.23;10.00;;;;;;;14.40;69.66;99937.97;5051690;28;20048;-39
2023/10/18 03:13:37;;;;;;;14.35;9.90;;;;;;;14.48;69.27;99937.66;5051625;28;20024;-41
2023/10/18 03:16:15;;;;;;;15.55;9.88;;;;;;;14.32;69.67;99946.28;5051690;28;20021;-41
2023/10/18 03:18:44;;;;;;;17.90;10.68;;;;;;;14.35;69.04;99943.16;5050472;28;20024;-39
2023/10/18 03:21:13;;;;;;;15.00;10.57;;;;;;;14.42;69.23;99943.09;5051507;28;20025;-40
2023/10/18 03:23:44;;;;;;;15.00;10.73;;;;;;;14.40;69.73;99953.22;5050932;28;20548;-39
2023/10/18 03:26:11;;;;;;;14.85;10.57;;;;;;;14.38;69.67;99947.25;5051276;28;20052;-40
2023/10/18 03:28:40;;;;;;;15.32;10.38;;;;;;;14.15;70.64;99935.34;5051380;28;20024;-40
2023/10/18 03:31:21;;;;;;;18.30;11.90;;;;;;;13.78;72.15;99939.81;5051284;28;20095;-39
2023/10/18 03:33:59;;;;;;;14.82;11.25;;;;;;;14.11;71.08;99936.00;5051118;28;20428;-40
2023/10/18 03:36:26;;;;;;;18.52;11.63;;;;;;;14.28;70.59;99934.41;5051688;28;20037;-40
2023/10/18 03:38:54;;;;;;;16.15;10.88;;;;;;;14.35;69.93;99935.13;5051033;28;20151;-39
2023/10/18 03:41:25;;;;;;;16.42;11.40;;;;;;;14.44;69.90;99933.78;5051042;28;20025;-40
2023/10/18 03:43:58;;;;;;;16.45;11.43;;;;;;;14.46;69.69;99934.38;5050865;28;20048;-39
2023/10/18 03:46:38;;;;;;;15.52;11.30;;;;;;;14.48;69.80;99940.31;5050992;28;20099;-39
2023/10/18 03:49:10;;;;;;;17.42;11.30;;;;;;;14.50;70.04;99936.63;5051143;28;20044;-40
2023/10/18 03:51:37;;;;;;;21.30;12.13;;;;;;;14.55;69.67;99926.06;5050894;28;20082;-40
2023/10/18 03:54:04;;;;;;;17.67;11.50;;;;;;;14.48;69.63;99924.25;5050571;28;20031;-38
2023/10/18 03:56:34;;;;;;;16.90;11.65;;;;;;;14.53;68.99;99942.34;5050373;28;20487;-40
2023/10/18 03:59:10;;;;;;;17.08;11.82;;;;;;;14.62;69.35;99929.47;5050519;28;20052;-39
2023/10/18 04:01:44;;;;;;;21.02;11.75;;;;;;;14.66;69.48;99925.34;5050801;28;20021;-39
2023/10/18 04:04:18;;;;;;;19.52;11.88;;;;;;;14.35;70.17;99918.25;5050847;28;20128;-39
2023/10/18 04:06:43;;;;;;;17.05;11.85;;;;;;;14.22;71.22;99924.56;5050748;28;20102;-39
2023/10/18 04:09:16;;;;;;;16.83;11.82;;;;;;;14.22;70.92;99925.41;5051118;28;20112;-40
2023/10/18 04:11:42;;;;;;;20.83;12.82;;;;;;;14.18;70.49;99913.47;5050543;28;20031;-40
2023/10/18 04:14:10;;;;;;;17.73;12.18;;;;;;;14.43;69.64;99921.47;5050670;28;20021;-39
2023/10/18 04:16:36;;;;;;;18.02;11.65;;;;;;;14.47;71.16;99919.97;5051103;28;20021;-40
2023/10/18 04:19:02;;;;;;;18.40;11.50;;;;;;;14.57;69.70;99913.28;5050942;28;20020;-41
2023/10/18 04:21:27;;;;;;;18.38;11.00;;;;;;;14.37;73.98;99914.28;5050800;28;20360;-40
2023/10/18 04:23:59;;;;;;;17.58;11.38;;;;;;;14.28;72.14;99913.00;5050669;28;20025;-41
2023/10/18 04:26:27;;;;;;;17.65;12.20;;;;;;;14.53;70.45;99915.56;5050595;28;20489;-39
2023/10/18 04:28:57;;;;;;;17.02;12.18;;;;;;;14.32;71.84;99914.16;5050556;28;20460;-39
2023/10/18 04:31:24;;;;;;;17.38;11.98;;;;;;;14.41;71.10;99907.47;5053608;28;20484;-39
2023/10/18 04:33:52;;;;;;;24.00;16.17;;;;;;;14.43;70.20;99915.25;5053611;28;20013;-40
2023/10/18 04:36:20;;;;;;;25.02;18.02;;;;;;;14.45;69.74;99916.69;5055081;28;20028;-40
2023/10/18 04:38:46;;;;;;;20.58;14.25;;;;;;;14.14;70.70;99917.66;5054866;28;20052;-40
2023/10/18 04:43:50;;;;;;;18.88;13.00;;;;;;;13.96;71.68;99923.81;5054695;28;20465;-40
2023/10/18 04:46:16;;;;;;;21.02;13.68;;;;;;;14.28;74.76;99934.41;5054359;28;20028;-41
2023/10/18 04:51:33;;;;;;;20.15;12.95;;;;;;;14.41;70.42;99928.06;5045927;28;20469;-41
2023/10/18 04:54:01;;;;;;;18.45;12.90;;;;;;;14.01;71.31;99925.81;5054057;28;20170;-40
2023/10/18 04:56:32;;;;;;;19.60;13.10;;;;;;;13.79;72.38;99944.16;5054705;28;20025;-39
2023/10/18 05:01:56;;;;;;;18.02;12.00;;;;;;;14.10;71.61;99945.91;5042689;28;20049;-39
2023/10/18 05:04:29;;;;;;;20.50;12.48;;;;;;;14.22;70.79;99946.81;5052087;28;20017;-40
2023/10/18 05:06:56;;;;;;;18.60;11.73;;;;;;;14.08;72.11;99932.72;5052559;28;20029;-41
2023/10/18 05:10:07;;;;;;;19.02;12.30;;;;;;;14.17;71.44;99935.13;5052163;28;20056;-41
2023/10/18 05:17:32;;;;;;;19.75;13.15;;;;;;;14.06;71.95;99934.81;5051616;28;20020;-40
2023/10/18 05:20:07;;;;;;;24.98;14.10;;;;;;;14.27;71.46;99933.56;5053646;28;20021;-39
2023/10/18 05:22:41;;;;;;;21.02;13.77;;;;;;;14.08;71.87;99932.72;5053276;28;20098;-44
2023/10/18 05:34:18;;;;;;;23.98;13.55;;;;;;;13.54;74.96;99944.97;5053325;28;20279;-39
2023/10/18 05:41:21;;;;;;;22.02;13.63;;;;;;;13.33;75.86;99959.53;5051003;28;20029;-42
2023/10/18 05:43:47;;;;;;;20.52;14.05;;;;;;;13.52;75.04;99951.56;5052514;28;20053;-39
2023/10/18 05:46:12;;;;;;;22.25;14.25;;;;;;;13.44;75.35;99949.97;5052771;28;20067;-39
2023/10/18 05:48:43;;;;;;;20.38;13.32;;;;;;;13.45;75.54;99952.44;5052724;28;20052;-42
2023/10/18 05:51:26;;;;;;;21.30;13.65;;;;;;;13.79;74.02;99957.53;5052585;28;20053;-38
2023/10/18 05:54:00;;;;;;;20.40;13.20;;;;;;;13.81;73.56;99964.28;5051375;28;20104;-40
2023/10/18 05:56:32;;;;;;;22.13;12.70;;;;;;;13.66;74.37;99956.59;5050736;28;20485;-40
2023/10/18 05:59:41;;;;;;;17.90;11.88;;;;;;;13.63;73.77;99966.91;5051479;28;20342;-41
2023/10/18 06:02:10;;;;;;;16.65;11.65;;;;;;;13.74;73.92;99978.75;5046356;28;20163;-39
2023/10/18 06:04:42;;;;;;;20.65;12.48;;;;;;;13.74;74.23;99982.25;5051711;28;20031;-40
2023/10/18 06:07:12;;;;;;;18.23;12.85;;;;;;;13.93;73.31;99984.97;5052010;28;20554;-41
2023/10/18 06:09:47;;;;;;;21.30;13.27;;;;;;;13.55;74.47;99975.19;5052100;28;20036;-41
2023/10/18 06:12:22;;;;;;;20.73;13.43;;;;;;;13.62;74.89;99975.97;5052134;28;20033;-41
2023/10/18 06:14:51;;;;;;;19.58;12.93;;;;;;;13.80;74.19;99981.38;5052187;28;20055;-41
2023/10/18 06:17:26;;;;;;;20.00;13.77;;;;;;;13.88;74.13;99982.97;5052350;28;20075;-42
2023/10/18 06:19:52;;;;;;;21.50;13.02;;;;;;;13.97;73.81;99978.94;5051162;28;20024;-41
2023/10/18 06:22:28;;;;;;;20.55;13.70;;;;;;;14.30;72.87;99979.66;5052412;28;20029;-41
2023/10/18 06:24:55;;;;;;;18.63;12.30;;;;;;;13.96;73.51;99993.38;5052432;28;20075;-39
2023/10/18 06:27:21;;;;;;;18.50;13.10;;;;;;;14.01;73.46;99990.03;5051963;28;20032;-41
2023/10/18 06:29:51;;;;;;;19.73;12.70;;;;;;;14.33;73.58;99987.25;5052071;28;20029;-41
2023/10/18 06:32:22;;;;;;;15.52;11.05;;;;;;;14.30;71.90;99996.56;5051862;28;20408;-40
2023/10/18 06:34:49;;;;;;;20.40;11.73;;;;;;;14.42;71.91;99991.28;5051920;28;20480;-40
2023/10/18 06:37:24;;;;;;;16.70;11.50;;;;;;;14.48;72.06;99998.41;5052016;28;20037;-43
2023/10/18 06:39:58;;;;;;;21.33;12.55;;;;;;;14.22;72.64;100002.19;5051742;28;20032;-39
2023/10/18 06:42:26;;;;;;;21.02;12.93;;;;;;;14.01;73.72;99998.06;5051951;28;20090;-42
2023/10/18 06:44:54;;;;;;;20.85;13.82;;;;;;;14.05;73.27;100000.09;5051852;28;20021;-40
2023/10/18 06:47:23;;;;;;;21.23;14.80;;;;;;;14.38;72.19;100009.66;5051827;28;20017;-40
2023/10/18 06:49:48;;;;;;;15.37;10.60;;;;;;;14.08;72.50;99996.97;5051734;28;20392;-41
2023/10/18 06:52:17;;;;;;;18.38;11.98;;;;;;;13.76;73.70;99990.03;5051257;28;20025;-40
2023/10/18 06:54:45;;;;;;;17.30;10.48;;;;;;;14.51;70.76;99989.94;5051588;28;20024;-40
2023/10/18 06:57:18;;;;;;;16.08;12.35;;;;;;;14.68;70.56;99992.03;5051802;28;20029;-42
2023/10/18 06:59:48;;;;;;;13.38;10.75;;;;;;;14.84;69.58;99994.13;5051600;28;20568;-39
2023/10/18 07:02:13;;;;;;;;;;;;;;;15.06;68.96;99999.84;5052130;28;20021;-40
2023/10/18 07:04:39;;;;;;;16.40;12.10;;;;;;;14.94;68.52;99986.34;5051339;28;20339;-42
2023/10/18 07:07:19;;;;;;;12.55;9.82;;;;;;;15.08;68.73;99992.38;5051643;28;20090;-42
2023/10/18 07:09:45;;;;;;;13.00;9.00;;;;;;;15.28;67.86;99996.63;5051610;28;20021;-40
2023/10/18 07:12:11;;;;;;;13.85;9.25;;;;;;;15.04;67.40;99994.69;5051251;28;20031;-40
2023/10/18 07:14:39;;;;;;;16.08;10.63;;;;;;;14.95;67.82;99992.56;5051521;28;20033;-40
2023/10/18 07:17:09;;;;;;;15.77;10.25;;;;;;;15.14;68.13;100007.53;5051631;28;20024;-40
2023/10/18 07:19:54;;;;;;;18.40;11.45;;;;;;;15.30;68.05;100019.47;5051791;28;20021;-41
2023/10/18 07:22:21;;;;;;;17.30;10.52;;;;;;;15.53;67.55;100015.25;5051374;28;20021;-41
2023/10/18 07:24:53;;;;;;;13.60;9.93;;;;;;;15.20;66.18;100013.88;5051316;28;20489;-41
2023/10/18 07:27:19;;;;;;;14.10;10.35;;;;;;;15.16;67.27;100010.81;5051368;28;20075;-40
2023/10/18 07:29:49;;;;;;;19.77;10.48;;;;;;;15.45;66.68;100011.03;5051283;28;20104;-41
2023/10/18 07:32:23;;;;;;;13.77;10.43;;;;;;;15.31;66.86;100023.81;5051382;28;20021;-41
2023/10/18 07:34:54;;;;;;;13.27;9.98;;;;;;;15.20;66.54;100014.69;5050427;28;20028;-44
2023/10/18 07:37:32;;;;;;;14.20;9.85;;;;;;;15.42;65.68;100017.69;5051128;28;20509;-42
2023/10/18 07:39:59;;;;;;;14.23;9.10;;;;;;;15.33;66.80;100016.34;5051014;28;20492;-39
2023/10/18 07:42:33;;;;;;;16.92;8.80;;;;;;;15.38;66.25;100013.81;5051098;28;20025;-44
2023/10/18 07:45:03;;;;;;;15.32;9.13;;;;;;;15.09;67.46;100009.28;5050610;28;20051;-40
2023/10/18 07:47:32;;;;;;;16.70;8.52;;;;;;;15.11;66.01;100004.50;5050750;28;20021;-41
2023/10/18 07:49:58;;;;;;;13.75;8.90;;;;;;;15.17;66.42;100017.81;5051038;28;20393;-41
2023/10/18 07:52:23;;;;;;;18.20;9.55;;;;;;;15.47;65.96;100013.47;5050883;28;20104;-41
2023/10/18 07:54:49;;;;;;;18.63;9.05;;;;;;;15.17;67.40;100023.19;5050982;28;20027;-39
2023/10/18 07:57:17;;;;;;;12.30;8.68;;;;;;;15.55;64.99;100018.50;5050792;28;20429;-43
2023/10/18 07:59:46;;;;;;;14.57;9.83;;;;;;;15.88;64.51;100017.19;5051003;28;20081;-41
2023/10/18 08:02:26;;;;;;;13.60;9.40;;;;;;;16.18;63.18;100017.09;5051230;28;20020;-43
2023/10/18 08:04:52;;;;;;;11.95;8.57;;;;;;;16.28;62.84;100014.66;5052526;28;20492;-40
2023/10/18 08:07:20;;;;;;;13.15;9.20;;;;;;;16.47;61.01;100011.81;5055374;28;20082;-41
2023/10/18 08:09:48;;;;;;;15.60;9.45;;;;;;;16.55;61.34;100017.66;5053233;28;20505;-41
2023/10/18 08:12:30;;;;;;;13.38;9.50;;;;;;;16.60;60.64;100008.88;5055136;28;20021;-40
2023/10/18 08:14:57;;;;;;;12.77;9.55;;;;;;;16.81;60.00;100015.50;5050566;28;20029;-41
2023/10/18 08:22:41;;;;;;;13.70;9.95;;;;;;;17.13;59.41;100009.69;5052248;28;20086;-43
2023/10/18 08:25:21;;;;;;;17.85;9.88;;;;;;;17.15;59.34;100008.44;5054683;28;20028;-42
2023/10/18 08:27:47;;;;;;;14.13;10.15;;;;;;;17.29;58.80;100014.31;5052912;28;20489;-41
2023/10/18 08:30:23;;;;;;;17.55;8.93;;;;;;;17.29;59.13;100008.13;5054299;28;20028;-42
2023/10/18 08:32:50;;;;;;;15.32;10.10;;;;;;;17.31;58.56;100008.72;5054586;28;20017;-40
2023/10/18 08:35:19;;;;;;;15.13;9.88;;;;;;;17.62;57.10;100009.22;5053874;28;20107;-42
2023/10/18 08:37:45;;;;;;;15.98;10.40;;;;;;;17.32;58.22;100008.44;5053991;28;20061;-40
2023/10/18 08:40:37;;;;;;;14.63;9.93;;;;;;;17.23;57.30;100006.38;5053920;28;20029;-40
2023/10/18 08:43:09;;;;;;;14.30;10.20;;;;;;;17.28;57.80;100009.19;5050056;28;20049;-41
2023/10/18 08:45:36;;;;;;;14.73;10.90;;;;;;;17.61;56.41;100010.28;5052796;28;20024;-41
2023/10/18 08:48:10;;;;;;;18.15;11.48;;;;;;;17.66;55.92;100015.75;5053004;28;20146;-41
2023/10/18 08:50:41;;;;;;;18.70;12.07;;;;;;;17.36;57.28;100015.00;5053632;28;20077;-41
2023/10/18 08:53:07;;;;;;;13.35;10.52;;;;;;;17.33;57.10;100014.66;5053934;28;20025;-40
2023/10/18 08:55:45;;;;;;;15.93;11.85;;;;;;;17.71;57.33;100023.94;5053881;28;20164;-41
2023/10/18 08:58:17;;;;;;;21.83;14.68;;;;;;;18.15;56.60;100022.22;5051115;28;20081;-40
2023/10/18 09:03:14;;;;;;;17.37;11.80;;;;;;;17.78;57.10;100027.25;5052648;28;20059;-40
2023/10/18 09:05:40;;;;;;;16.67;11.00;;;;;;;17.98;56.31;100029.50;5053486;28;20263;-39
2023/10/18 09:08:08;;;;;;;15.13;10.88;;;;;;;17.99;56.23;100036.50;5053965;28;20052;-42
2023/10/18 09:15:54;;;;;;;15.55;11.27;;;;;;;18.74;52.81;100031.66;5053096;28;20027;-41
2023/10/18 09:18:24;;;;;;;16.15;11.80;;;;;;;18.51;53.78;100035.41;5054252;28;20443;-41
2023/10/18 09:20:50;;;;;;;15.75;11.52;;;;;;;18.69;53.56;100026.19;5054571;28;20021;-42
2023/10/18 09:23:24;;;;;;;16.42;12.15;;;;;;;18.97;53.55;100022.53;5054286;28;20031;-41
2023/10/18 09:26:13;;;;;;;14.88;11.40;;;;;;;19.21;52.19;100022.22;5035870;28;20025;-40
2023/10/18 09:28:39;;;;;;;15.32;10.45;;;;;;;19.31;51.21;100023.16;5053501;28;20048;-41
2023/10/18 09:31:18;;;;;;;15.30;10.38;;;;;;;19.09;50.59;100004.31;5053595;28;20025;-42
2023/10/18 09:33:51;;;;;;;14.48;10.50;;;;;;;18.72;52.02;100026.50;5052640;28;20029;-41
2023/10/18 09:36:19;;;;;;;15.85;11.02;;;;;;;18.74;51.99;100032.47;5052376;28;20489;-40
2023/10/18 09:38:45;;;;;;;16.52;11.18;;;;;;;18.48;52.74;100022.41;5052472;28;20516;-40
2023/10/18 09:41:11;;;;;;;15.00;11.40;;;;;;;18.69;52.12;100021.59;5052895;28;20032;-40
2023/10/18 09:43:36;;;;;;;14.82;11.05;;;;;;;18.56;54.29;100024.66;5052578;28;20076;-40
2023/10/18 09:46:03;;;;;;;16.77;11.00;;;;;;;18.95;53.60;100021.97;5052700;28;20507;-41
2023/10/18 09:48:32;;;;;;;17.88;11.40;;;;;;;19.12;51.60;100011.91;5051843;28;20453;-40
2023/10/18 09:51:08;;;;;;;14.75;11.18;;;;;;;19.23;51.15;100010.13;5051857;28;20028;-39
2023/10/18 09:53:50;;;;;;;17.77;11.70;;;;;;;19.59;51.30;100009.66;5052302;28;20033;-39
2023/10/18 09:56:35;;;;;;;14.50;10.82;;;;;;;18.89;51.91;100004.91;5053006;28;20056;-39
2023/10/18 09:59:08;;;;;;;15.80;10.18;;;;;;;19.34;51.20;100009.16;5053725;28;20072;-41
2023/10/18 10:04:13;;;;;;;13.02;9.90;;;;;;;19.92;49.36;100005.91;5053359;28;20158;-42
2023/10/18 10:06:46;;;;;;;12.63;9.30;;;;;;;19.94;49.24;100001.06;5052444;28;20032;-41
2023/10/18 10:09:14;;;;;;;12.50;8.88;;;;;;;20.07;48.70;99994.41;5052579;28;20068;-42
2023/10/18 10:11:47;;;;;;;13.40;9.05;;;;;;;20.17;48.54;100001.75;5052965;28;20096;-42
2023/10/18 10:14:18;;;;;;;15.38;10.15;;;;;;;19.89;48.87;99985.63;5052300;28;20025;-40
2023/10/18 10:16:54;;;;;;;13.18;10.10;;;;;;;19.51;50.16;99998.25;5052587;28;20036;-41
2023/10/18 10:19:28;;;;;;;14.02;10.15;;;;;;;19.50;50.23;99998.50;5051363;28;20059;-41
2023/10/18 10:21:56;;;;;;;13.85;9.82;;;;;;;19.87;48.79;99995.06;5052749;28;20153;-44
2023/10/18 10:24:31;;;;;;;15.10;10.13;;;;;;;19.41;50.31;99997.34;5052645;28;20100;-41
2023/10/18 10:30:03;;;;;;;13.07;9.80;;;;;;;19.90;49.84;99991.84;5052449;28;20499;-42
2023/10/18 10:32:32;;;;;;;13.05;9.88;;;;;;;20.25;48.17;99985.03;5051868;28;20479;-39
2023/10/18 10:35:17;;;;;;;17.90;14.73;;;;;;;20.33;49.08;99986.44;5051775;28;20060;-39
2023/10/18 10:37:53;;;;;;;13.55;10.35;;;;;;;20.54;46.90;99988.16;5051984;28;20051;-43
2023/10/18 10:43:22;;;;;;;12.05;9.55;;;;;;;19.97;47.23;99987.03;5051916;28;20480;-40
2023/10/18 10:51:16;;;;;;;17.92;12.80;;;;;;;19.49;51.25;99978.78;5051502;28;20567;-40
2023/10/18 10:53:44;;;;;;;13.70;11.50;;;;;;;20.11;49.16;99973.88;5051803;28;20025;-42
2023/10/18 10:56:17;;;;;;;17.92;13.90;;;;;;;19.73;50.14;99979.28;5050391;28;20115;-40
2023/10/18 10:58:47;;;;;;;12.43;10.52;;;;;;;20.27;47.97;99972.09;5051550;28;20603;-43
2023/10/18 11:01:15;;;;;;;12.95;8.70;;;;;;;20.46;46.84;99967.84;5051681;28;20032;-40
2023/10/18 11:03:54;;;;;;;15.60;9.18;;;;;;;20.93;46.10;99959.94;5051518;28;20078;-42
2023/10/18 11:06:24;;;;;;;16.30;9.53;;;;;;;20.77;46.07;99962.59;5051283;28;20021;-42
2023/10/18 11:08:56;;;;;;;11.50;9.30;;;;;;;20.13;47.33;99955.53;5051607;28;20643;-42
2023/10/18 11:11:26;;;;;;;19.83;9.85;;;;;;;20.48;47.15;99949.47;5051645;28;20024;-40
2023/10/18 11:13:51;;;;;;;;;;;;;;;20.85;44.82;99950.47;5051889;28;20025;-39
2023/10/18 11:16:17;;;;;;;11.63;8.50;;;;;;;20.48;45.32;99948.66;5051299;28;19919;-44
2023/10/18 11:18:48;;;;;;;12.35;8.23;;;;;;;20.38;45.08;99940.53;5051335;28;20020;-41
2023/10/18 11:21:29;;;;;;;11.07;8.43;;;;;;;20.31;45.69;99944.28;5051331;28;20078;-41
2023/10/18 11:24:02;;;;;;;12.30;8.63;;;;;;;19.93;46.33;99931.91;5051372;28;20028;-43
2023/10/18 11:26:28;;;;;;;11.18;8.30;;;;;;;20.01;45.98;99926.03;5051322;28;20481;-39
2023/10/18 11:28:59;;;;;;;10.90;7.70;;;;;;;20.52;46.14;99917.31;5051513;28;20120;-41
2023/10/18 11:31:28;;;;;;;11.07;7.90;;;;;;;20.56;46.14;99917.59;5051522;28;20200;-41
2023/10/18 11:34:05;;;;;;;12.32;7.10;;;;;;;20.73;44.00;99918.22;5051247;28;20028;-41
2023/10/18 11:36:32;;;;;;;9.02;6.63;;;;;;;21.03;43.92;99916.69;5051277;28;20027;-40
2023/10/18 11:39:18;;;;;;;11.25;7.28;;;;;;;21.48;43.18;99915.91;5050313;28;20049;-38
2023/10/18 11:41:45;;;;;;;13.48;7.80;;;;;;;21.47;44.13;99916.97;5051577;28;20111;-42
2023/10/18 11:44:16;;;;;;;11.15;7.80;;;;;;;21.50;44.39;99925.66;5051582;28;20024;-42
2023/10/18 11:46:56;;;;;;;10.50;7.40;;;;;;;21.49;43.38;99922.13;5051117;28;20044;-43
2023/10/18 11:49:21;;;;;;;9.55;7.10;;;;;;;21.19;43.89;99920.19;5050972;28;20400;-39
2023/10/18 11:51:50;;;;;;;9.02;6.75;;;;;;;21.75;43.04;99914.00;5050731;28;20085;-40
2023/10/18 11:54:31;;;;;;;9.48;7.22;;;;;;;22.29;42.17;99907.91;5051255;28;20103;-41
2023/10/18 11:56:58;;;;;;;8.45;6.82;;;;;;;22.52;41.47;99901.00;5051481;28;20032;-40
2023/10/18 11:59:25;;;;;;;11.93;7.20;;;;;;;22.61;40.07;99899.34;5050928;28;20102;-41
2023/10/18 12:02:04;;;;;;;10.48;6.75;;;;;;;21.84;41.94;99901.53;5051113;28;20024;-39
2023/10/18 12:04:37;;;;;;;9.38;5.75;;;;;;;21.43;42.39;99905.03;5051033;28;20041;-42
2023/10/18 12:07:03;;;;;;;6.82;5.45;;;;;;;21.73;41.54;99900.72;5050855;28;20037;-40
2023/10/18 12:09:30;;;;;;;8.10;6.63;;;;;;;21.38;42.10;99888.84;5050829;28;20028;-42
2023/10/18 12:11:57;;;;;;;6.40;5.50;;;;;;;20.92;43.33;99886.09;5050982;28;20029;-41
2023/10/18 12:14:23;;;;;;;7.72;5.85;;;;;;;20.74;43.49;99883.91;5050898;28;20135;-40
2023/10/18 12:16:54;;;;;;;7.97;6.00;;;;;;;20.92;43.62;99874.47;5050643;28;20029;-42
2023/10/18 12:19:20;;;;;;;8.90;6.20;;;;;;;21.43;42.77;99882.59;5050873;28;20481;-42
2023/10/18 12:21:49;;;;;;;9.95;5.80;;;;;;;21.00;42.88;99880.16;5051022;28;20037;-41
2023/10/18 12:24:18;;;;;;;9.05;5.95;;;;;;;20.83;43.16;99876.91;5051197;28;20029;-39
2023/10/18 12:26:45;;;;;;;;;;;;;;;21.51;42.17;99878.56;5051015;28;20021;-39
2023/10/18 12:29:15;;;;;;;7.70;5.65;;;;;;;21.48;41.94;99886.13;5051135;28;19967;-42
2023/10/18 12:31:42;;;;;;;7.03;5.50;;;;;;;21.29;41.45;99893.16;5051065;28;20025;-40